createdAt,value
2023-04-05T00:00:20.513Z,50.908100
2023-04-05T00:01:20.508Z,50.908161
2023-04-05T00:02:20.499Z,50.908146
2023-04-05T00:03:20.603Z,50.908127
2023-04-05T00:04:21.610Z,50.908096
2023-04-05T00:05:20.475Z,50.908119
2023-04-05T00:06:20.472Z,50.908047
2023-04-05T00:07:20.470Z,50.908119
2023-04-05T00:08:20.458Z,50.908104
2023-04-05T00:09:20.492Z,50.908150
2023-04-05T00:10:20.439Z,50.908150
2023-04-05T00:11:20.430Z,50.908138
2023-04-05T00:12:20.428Z,50.908138
2023-04-05T00:13:20.426Z,50.908100
2023-04-05T00:14:20.440Z,50.908180
2023-04-05T00:15:20.400Z,50.908150
2023-04-05T00:16:20.411Z,50.908112
2023-04-05T00:17:20.388Z,50.908188
2023-04-05T00:18:20.395Z,50.908154
2023-04-05T00:19:20.403Z,50.908146
2023-04-05T00:20:20.370Z,50.908119
2023-04-05T00:21:20.360Z,50.908123
2023-04-05T00:22:20.352Z,50.908112
2023-04-05T00:23:20.351Z,50.908112
2023-04-05T00:24:20.378Z,50.908127
2023-04-05T00:25:20.330Z,50.908131
2023-04-05T00:26:20.331Z,50.908104
2023-04-05T00:27:20.310Z,50.908096
2023-04-05T00:28:21.301Z,50.908085
2023-04-05T00:29:20.326Z,50.908108
2023-04-05T00:30:20.297Z,50.908112
2023-04-05T00:31:20.284Z,50.908123
2023-04-05T00:32:20.278Z,50.908020
2023-04-05T00:33:20.276Z,50.908077
2023-04-05T00:34:20.263Z,50.908119
2023-04-05T00:35:20.283Z,50.908092
2023-04-05T00:36:20.244Z,50.908062
2023-04-05T00:37:20.238Z,50.908108
2023-04-05T00:38:20.249Z,50.908115
2023-04-05T00:39:21.223Z,50.908077
2023-04-05T00:40:20.254Z,50.908100
2023-04-05T00:41:20.215Z,50.908119
2023-04-05T00:42:20.203Z,50.908112
2023-04-05T00:43:20.195Z,50.908134
2023-04-05T00:44:20.193Z,50.908119
2023-04-05T00:45:20.230Z,50.908127
2023-04-05T00:46:20.193Z,50.908119
2023-04-05T00:47:20.173Z,50.908089
2023-04-05T00:48:20.184Z,50.908081
2023-04-05T00:49:20.172Z,50.908150
2023-04-05T00:50:20.180Z,50.908104
2023-04-05T00:51:20.197Z,50.908112
2023-04-05T00:52:20.134Z,50.908157
2023-04-05T00:53:20.129Z,50.908108
2023-04-05T00:54:20.124Z,50.908077
2023-04-05T00:55:20.131Z,50.908131
2023-04-05T00:56:20.099Z,50.908123
2023-04-05T00:57:20.097Z,50.908077
2023-04-05T00:58:20.139Z,50.908085
2023-04-05T00:59:20.109Z,50.908112
2023-04-05T01:00:20.085Z,50.908100
2023-04-05T01:01:20.097Z,50.908100
2023-04-05T01:02:20.054Z,50.908081
2023-04-05T01:03:20.042Z,50.908051
2023-04-05T01:04:20.067Z,50.908039
2023-04-05T01:05:20.056Z,50.908020
2023-04-05T01:06:20.020Z,50.908031
2023-04-05T01:07:21.006Z,50.908028
2023-04-05T01:08:20.091Z,50.908001
2023-04-05T01:09:19.992Z,50.908039
2023-04-05T01:10:20.014Z,50.908058
2023-04-05T01:11:19.976Z,50.908077
2023-04-05T01:12:19.981Z,50.907982
2023-04-05T01:13:19.960Z,50.908012
2023-04-05T01:14:19.960Z,50.908081
2023-04-05T01:15:19.984Z,50.908100
2023-04-05T01:16:19.994Z,50.908112
2023-04-05T01:17:19.934Z,50.908092
2023-04-05T01:18:19.983Z,50.908089
2023-04-05T01:19:19.917Z,50.908062
2023-04-05T01:20:19.943Z,50.908134
2023-04-05T01:21:19.904Z,50.908142
2023-04-05T01:22:19.902Z,50.908016
2023-04-05T01:23:19.888Z,50.908104
2023-04-05T01:24:19.895Z,50.908073
2023-04-05T01:25:19.896Z,50.908054
2023-04-05T01:26:19.880Z,50.908184
2023-04-05T01:27:19.868Z,50.908165
2023-04-05T01:28:19.876Z,50.908108
2023-04-05T01:29:19.851Z,50.908001
2023-04-05T01:30:19.858Z,50.908077
2023-04-05T01:31:19.909Z,50.908073
2023-04-05T01:32:19.825Z,50.908039
2023-04-05T01:33:19.807Z,50.908035
2023-04-05T01:34:19.812Z,50.908081
2023-04-05T01:35:21.283Z,50.908112
2023-04-05T01:36:19.861Z,50.907997
2023-04-05T01:37:19.796Z,50.908089
2023-04-05T01:38:19.785Z,50.908054
2023-04-05T01:39:19.769Z,50.908058
2023-04-05T01:40:19.785Z,50.908199
2023-04-05T01:41:19.750Z,50.908165
2023-04-05T01:42:19.750Z,50.908203
2023-04-05T01:43:19.738Z,50.908138
2023-04-05T01:44:19.732Z,50.908176
2023-04-05T01:45:19.762Z,50.908199
2023-04-05T01:46:19.738Z,50.908112
2023-04-05T01:47:19.711Z,50.908180
2023-04-05T01:48:19.708Z,50.908310
2023-04-05T01:49:19.706Z,50.908401
2023-04-05T01:50:19.729Z,50.908176
2023-04-05T01:51:19.688Z,50.908142
2023-04-05T01:52:19.674Z,50.908142
2023-04-05T01:53:19.670Z,50.908142
2023-04-05T01:54:19.666Z,50.908142
2023-04-05T01:55:19.673Z,50.908142
2023-04-05T01:56:20.653Z,50.908142
2023-04-05T01:57:19.641Z,50.908142
2023-04-05T01:58:19.628Z,50.908142
2023-04-05T01:59:19.638Z,50.909409
2023-04-05T02:00:19.617Z,50.908928
2023-04-05T02:01:19.660Z,50.908928
2023-04-05T02:02:19.599Z,50.908199
2023-04-05T02:03:19.639Z,50.908195
2023-04-05T02:04:19.588Z,50.908195
2023-04-05T02:05:19.587Z,50.908195
2023-04-05T02:06:19.601Z,50.908195
2023-04-05T02:07:19.566Z,50.908195
2023-04-05T02:08:19.566Z,50.908195
2023-04-05T02:09:19.551Z,50.908195
2023-04-05T02:10:19.547Z,50.908195
2023-04-05T02:11:19.569Z,50.908195
2023-04-05T02:12:19.537Z,50.908195
2023-04-05T02:13:19.520Z,50.908195
2023-04-05T02:14:19.533Z,50.908195
2023-04-05T02:15:19.508Z,50.908195
2023-04-05T02:16:19.562Z,50.908195
2023-04-05T02:17:19.501Z,50.908195
2023-04-05T02:18:19.526Z,50.908195
2023-04-05T02:19:19.486Z,50.908195
2023-04-05T02:20:19.474Z,50.908195
2023-04-05T02:21:19.487Z,50.908195
2023-04-05T02:22:19.468Z,50.908195
2023-04-05T02:23:19.479Z,50.908195
2023-04-05T02:24:19.450Z,50.908195
2023-04-05T02:25:19.445Z,50.908195
2023-04-05T02:26:19.451Z,50.908195
2023-04-05T02:27:19.421Z,50.908195
2023-04-05T02:28:19.420Z,50.908195
2023-04-05T02:29:19.412Z,50.908195
2023-04-05T02:30:19.400Z,50.908195
2023-04-05T02:31:19.435Z,50.908195
2023-04-05T02:32:19.386Z,50.908195
2023-04-05T02:33:19.377Z,50.908195
2023-04-05T02:34:19.374Z,50.908195
2023-04-05T02:35:19.408Z,50.908195
2023-04-05T02:36:19.374Z,50.908195
2023-04-05T02:37:19.356Z,50.908195
2023-04-05T02:38:19.355Z,50.908138
2023-04-05T02:39:19.331Z,50.908047
2023-04-05T02:40:19.323Z,50.908104
2023-04-05T02:41:19.341Z,50.908142
2023-04-05T02:42:19.316Z,50.908138
2023-04-05T02:43:19.328Z,50.908115
2023-04-05T02:44:19.298Z,50.908131
2023-04-05T02:45:19.292Z,50.908161
2023-04-05T02:46:19.459Z,50.908127
2023-04-05T02:47:19.269Z,50.908123
2023-04-05T02:48:19.274Z,50.908123
2023-04-05T02:49:19.263Z,50.908112
2023-04-05T02:50:19.263Z,50.908115
2023-04-05T02:51:19.275Z,50.908119
2023-04-05T02:52:19.230Z,50.908112
2023-04-05T02:53:19.248Z,50.908112
2023-04-05T02:54:19.218Z,50.908073
2023-04-05T02:55:19.205Z,50.908100
2023-04-05T02:56:19.227Z,50.908089
2023-04-05T02:57:19.201Z,50.908100
2023-04-05T02:58:19.185Z,50.908100
2023-04-05T02:59:19.210Z,50.908123
2023-04-05T03:00:19.180Z,50.908123
2023-04-05T03:01:19.230Z,50.908123
2023-04-05T03:02:19.161Z,50.908134
2023-04-05T03:03:19.202Z,50.908108
2023-04-05T03:04:19.153Z,50.908100
2023-04-05T03:05:19.147Z,50.908138
2023-04-05T03:06:19.150Z,50.908104
2023-04-05T03:07:19.133Z,50.908108
2023-04-05T03:08:19.115Z,50.908089
2023-04-05T03:09:19.112Z,50.908131
2023-04-05T03:10:19.117Z,50.908085
2023-04-05T03:11:19.114Z,50.908089
2023-04-05T03:12:19.085Z,50.908077
2023-04-05T03:13:19.086Z,50.908081
2023-04-05T03:14:19.081Z,50.908100
2023-04-05T03:15:19.066Z,50.908108
2023-04-05T03:16:19.130Z,50.908104
2023-04-05T03:17:19.056Z,50.908104
2023-04-05T03:18:19.043Z,50.908104
2023-04-05T03:19:19.038Z,50.908127
2023-04-05T03:20:19.034Z,50.908131
2023-04-05T03:21:19.085Z,50.908112
2023-04-05T03:22:19.023Z,50.908127
2023-04-05T03:23:19.001Z,50.908146
2023-04-05T03:24:19.007Z,50.908112
2023-04-05T03:25:19.032Z,50.908100
2023-04-05T03:26:19.008Z,50.908104
2023-04-05T03:27:18.969Z,50.908131
2023-04-05T03:28:19.960Z,50.908104
2023-04-05T03:29:18.954Z,50.908104
2023-04-05T03:30:18.969Z,50.908104
2023-04-05T03:31:20.606Z,50.908092
2023-04-05T03:32:19.941Z,50.908138
2023-04-05T03:33:18.935Z,50.908108
2023-04-05T03:34:18.930Z,50.908108
2023-04-05T03:35:19.991Z,50.908096
2023-04-05T03:36:18.942Z,50.908085
2023-04-05T03:37:18.904Z,50.908054
2023-04-05T03:38:18.911Z,50.908104
2023-04-05T03:39:18.889Z,50.908131
2023-04-05T03:40:18.885Z,50.908108
2023-04-05T03:41:18.864Z,50.908100
2023-04-05T03:42:19.894Z,50.908115
2023-04-05T03:43:18.858Z,50.908123
2023-04-05T03:44:18.863Z,50.908146
2023-04-05T03:45:23.317Z,50.908096
2023-04-05T03:46:20.906Z,50.908123
2023-04-05T03:47:18.841Z,50.908119
2023-04-05T03:48:18.821Z,50.908112
2023-04-05T03:49:18.813Z,50.908073
2023-04-05T03:50:18.819Z,50.908123
2023-04-05T03:51:18.794Z,50.908104
2023-04-05T03:52:18.816Z,50.908184
2023-04-05T03:53:18.782Z,50.908096
2023-04-05T03:54:18.774Z,50.908127
2023-04-05T03:55:18.764Z,50.908165
2023-04-05T03:56:18.753Z,50.908195
2023-04-05T03:57:19.750Z,50.908157
2023-04-05T03:58:18.760Z,50.908161
2023-04-05T03:59:18.741Z,50.908150
2023-04-05T04:00:18.727Z,50.908169
2023-04-05T04:01:18.727Z,50.908176
2023-04-05T04:02:18.784Z,50.908146
2023-04-05T04:03:18.704Z,50.908123
2023-04-05T04:04:18.700Z,50.908180
2023-04-05T04:05:18.822Z,50.908134
2023-04-05T04:06:19.511Z,50.908081
2023-04-05T04:07:19.703Z,50.908089
2023-04-05T04:08:18.676Z,50.908112
2023-04-05T04:09:18.663Z,50.908131
2023-04-05T04:10:18.654Z,50.908138
2023-04-05T04:11:18.639Z,50.908104
2023-04-05T04:12:18.655Z,50.908146
2023-04-05T04:13:18.626Z,50.908146
2023-04-05T04:14:18.620Z,50.908073
2023-04-05T04:15:18.612Z,50.908092
2023-04-05T04:16:18.628Z,50.908112
2023-04-05T04:17:18.633Z,50.908108
2023-04-05T04:18:18.610Z,50.908134
2023-04-05T04:19:18.600Z,50.908127
2023-04-05T04:20:18.581Z,50.908154
2023-04-05T04:21:18.588Z,50.908154
2023-04-05T04:22:18.592Z,50.908150
2023-04-05T04:23:18.581Z,50.908123
2023-04-05T04:24:18.620Z,50.908108
2023-04-05T04:25:18.537Z,50.908157
2023-04-05T04:26:18.533Z,50.908134
2023-04-05T04:27:18.564Z,50.908115
2023-04-05T04:28:18.513Z,50.908092
2023-04-05T04:29:18.515Z,50.908066
2023-04-05T04:30:18.515Z,50.908085
2023-04-05T04:31:19.518Z,50.908066
2023-04-05T04:32:18.534Z,50.908089
2023-04-05T04:33:18.545Z,50.908123
2023-04-05T04:34:18.478Z,50.908154
2023-04-05T04:35:18.638Z,50.908047
2023-04-05T04:36:19.175Z,50.908031
2023-04-05T04:37:18.500Z,50.908154
2023-04-05T04:38:18.436Z,50.908131
2023-04-05T04:39:18.434Z,50.908100
2023-04-05T04:40:18.435Z,50.908142
2023-04-05T04:41:18.416Z,50.908157
2023-04-05T04:42:18.430Z,50.908054
2023-04-05T04:43:18.401Z,50.908012
2023-04-05T04:44:18.393Z,50.908077
2023-04-05T04:45:18.395Z,50.907986
2023-04-05T04:46:18.501Z,50.907970
2023-04-05T04:47:18.398Z,50.908073
2023-04-05T04:48:18.361Z,50.908081
2023-04-05T04:49:18.356Z,50.908051
2023-04-05T04:50:18.351Z,50.908089
2023-04-05T04:51:18.347Z,50.908058
2023-04-05T04:52:18.358Z,50.908047
2023-04-05T04:53:18.328Z,50.908001
2023-04-05T04:54:19.323Z,50.908108
2023-04-05T04:55:18.310Z,50.908081
2023-04-05T04:56:18.310Z,50.908070
2023-04-05T04:57:18.321Z,50.908070
2023-04-05T04:58:18.312Z,50.908009
2023-04-05T04:59:19.338Z,50.908012
2023-04-05T05:00:18.279Z,50.908070
2023-04-05T05:01:18.344Z,50.908131
2023-04-05T05:02:18.285Z,50.908062
2023-04-05T05:03:18.256Z,50.908169
2023-04-05T05:04:18.286Z,50.908146
2023-04-05T05:05:18.237Z,50.908146
2023-04-05T05:06:19.237Z,50.908035
2023-04-05T05:07:18.254Z,50.908054
2023-04-05T05:08:20.601Z,50.908089
2023-04-05T05:09:19.220Z,50.908154
2023-04-05T05:10:18.205Z,50.908127
2023-04-05T05:11:18.205Z,50.908104
2023-04-05T05:12:18.220Z,50.908108
2023-04-05T05:13:18.190Z,50.908173
2023-04-05T05:14:18.187Z,50.908062
2023-04-05T05:15:18.172Z,50.908096
2023-04-05T05:16:18.199Z,50.908119
2023-04-05T05:17:18.186Z,50.908024
2023-04-05T05:18:18.151Z,50.908047
2023-04-05T05:19:18.145Z,50.908073
2023-04-05T05:20:18.137Z,50.908085
2023-04-05T05:21:18.130Z,50.908062
2023-04-05T05:22:18.160Z,50.908245
2023-04-05T05:23:18.123Z,50.908131
2023-04-05T05:24:18.103Z,50.908085
2023-04-05T05:25:18.098Z,50.908070
2023-04-05T05:26:18.086Z,50.908134
2023-04-05T05:27:18.125Z,50.908104
2023-04-05T05:28:18.081Z,50.908096
2023-04-05T05:29:18.067Z,50.908039
2023-04-05T05:30:18.061Z,50.908092
2023-04-05T05:31:18.223Z,50.908108
2023-04-05T05:32:18.068Z,50.908127
2023-04-05T05:33:18.039Z,50.908100
2023-04-05T05:34:18.037Z,50.908157
2023-04-05T05:35:18.046Z,50.908112
2023-04-05T05:36:18.012Z,50.908134
2023-04-05T05:37:18.038Z,50.908131
2023-04-05T05:38:18.001Z,50.908150
2023-04-05T05:39:17.997Z,50.908169
2023-04-05T05:40:17.978Z,50.908157
2023-04-05T05:41:17.967Z,50.908127
2023-04-05T05:42:18.022Z,50.908146
2023-04-05T05:43:17.953Z,50.908188
2023-04-05T05:44:17.957Z,50.908123
2023-04-05T05:45:17.936Z,50.908154
2023-04-05T05:46:19.396Z,50.908165
2023-04-05T05:47:17.920Z,50.908150
2023-04-05T05:48:17.934Z,50.908173
2023-04-05T05:49:17.947Z,50.908161
2023-04-05T05:50:17.892Z,50.908054
2023-04-05T05:51:17.884Z,50.908142
2023-04-05T05:52:17.876Z,50.908146
2023-04-05T05:53:17.911Z,50.908150
2023-04-05T05:54:17.862Z,50.908138
2023-04-05T05:55:17.853Z,50.908138
2023-04-05T05:56:17.849Z,50.908123
2023-04-05T05:57:17.837Z,50.908112
2023-04-05T05:58:17.864Z,50.908112
2023-04-05T05:59:17.845Z,50.908134
2023-04-05T06:00:17.863Z,50.908127
2023-04-05T06:01:17.809Z,50.908123
2023-04-05T06:02:17.808Z,50.908096
2023-04-05T06:03:17.918Z,50.908092
2023-04-05T06:04:17.916Z,50.908092
2023-04-05T06:05:17.781Z,50.908138
2023-04-05T06:06:17.765Z,50.908138
2023-04-05T06:07:17.763Z,50.908165
2023-04-05T06:08:17.780Z,50.908085
2023-04-05T06:09:17.747Z,50.908096
2023-04-05T06:10:17.742Z,50.908085
2023-04-05T06:11:17.744Z,50.908089
2023-04-05T06:12:17.748Z,50.908089
2023-04-05T06:13:17.748Z,50.908089
2023-04-05T06:14:17.711Z,50.908089
2023-04-05T06:15:17.697Z,50.908096
2023-04-05T06:16:17.732Z,50.908073
2023-04-05T06:17:17.689Z,50.908073
2023-04-05T06:18:17.739Z,50.908085
2023-04-05T06:19:17.685Z,50.908073
2023-04-05T06:20:17.661Z,50.908089
2023-04-05T06:21:17.703Z,50.908066
2023-04-05T06:22:17.644Z,50.908115
2023-04-05T06:23:17.661Z,50.908115
2023-04-05T06:24:17.632Z,50.908100
2023-04-05T06:25:18.351Z,50.908089
2023-04-05T06:26:18.608Z,50.908104
2023-04-05T06:27:17.604Z,50.908089
2023-04-05T06:28:17.615Z,50.908089
2023-04-05T06:29:17.587Z,50.908096
2023-04-05T06:30:17.579Z,50.908085
2023-04-05T06:31:17.879Z,50.908081
2023-04-05T06:32:17.558Z,50.908070
2023-04-05T06:33:17.593Z,50.908085
2023-04-05T06:34:17.539Z,50.908070
2023-04-05T06:35:17.537Z,50.908100
2023-04-05T06:36:17.531Z,50.908146
2023-04-05T06:37:17.521Z,50.908081
2023-04-05T06:38:17.544Z,50.908100
2023-04-05T06:39:17.505Z,50.908112
2023-04-05T06:40:17.483Z,50.908108
2023-04-05T06:41:18.489Z,50.908100
2023-04-05T06:42:17.487Z,50.908112
2023-04-05T06:43:17.497Z,50.908104
2023-04-05T06:44:17.465Z,50.908115
2023-04-05T06:45:17.465Z,50.908092
2023-04-05T06:46:17.467Z,50.908112
2023-04-05T06:47:17.439Z,50.908150
2023-04-05T06:48:17.459Z,50.908131
2023-04-05T06:49:17.427Z,50.908020
2023-04-05T06:50:17.418Z,50.908127
2023-04-05T06:51:17.417Z,50.908192
2023-04-05T06:52:17.402Z,50.908134
2023-04-05T06:53:17.430Z,50.908131
2023-04-05T06:54:17.389Z,50.908119
2023-04-05T06:55:17.381Z,50.908073
2023-04-05T06:56:17.373Z,50.908009
2023-04-05T06:57:17.364Z,50.908112
2023-04-05T06:58:17.409Z,50.908157
2023-04-05T06:59:17.412Z,50.908134
2023-04-05T07:00:17.371Z,50.908127
2023-04-05T07:01:17.419Z,50.908115
2023-04-05T07:02:17.327Z,50.908131
2023-04-05T07:03:17.388Z,50.908115
2023-04-05T07:04:17.345Z,50.908157
2023-04-05T07:05:17.308Z,50.908119
2023-04-05T07:06:17.295Z,50.908146
2023-04-05T07:07:17.284Z,50.908154
2023-04-05T07:08:17.371Z,50.908127
2023-04-05T07:09:17.272Z,50.908047
2023-04-05T07:10:17.271Z,50.908142
2023-04-05T07:11:17.261Z,50.908169
2023-04-05T07:12:17.251Z,50.908173
2023-04-05T07:13:17.280Z,50.908127
2023-04-05T07:14:17.249Z,50.908134
2023-04-05T07:15:17.230Z,50.908108
2023-04-05T07:16:17.278Z,50.908115
2023-04-05T07:17:17.210Z,50.908119
2023-04-05T07:18:17.236Z,50.908165
2023-04-05T07:19:17.201Z,50.908123
2023-04-05T07:20:17.189Z,50.908119
2023-04-05T07:21:17.184Z,50.908112
2023-04-05T07:22:17.380Z,50.908123
2023-04-05T07:23:17.187Z,50.908142
2023-04-05T07:24:17.157Z,50.908127
2023-04-05T07:25:17.148Z,50.908100
2023-04-05T07:26:17.142Z,50.908134
2023-04-05T07:27:17.136Z,50.908081
2023-04-05T07:28:17.171Z,50.908100
2023-04-05T07:29:17.126Z,50.908119
2023-04-05T07:30:17.119Z,50.908119
2023-04-05T07:31:17.144Z,50.908066
2023-04-05T07:32:17.116Z,50.908100
2023-04-05T07:33:17.140Z,50.908108
2023-04-05T07:34:17.083Z,50.908108
2023-04-05T07:35:17.083Z,50.908085
2023-04-05T07:36:17.122Z,50.908192
2023-04-05T07:37:17.067Z,50.908112
2023-04-05T07:38:17.090Z,50.908096
2023-04-05T07:39:17.054Z,50.908073
2023-04-05T07:40:17.038Z,50.908108
2023-04-05T07:41:17.039Z,50.908100
2023-04-05T07:42:17.030Z,50.908096
2023-04-05T07:43:17.040Z,50.908157
2023-04-05T07:44:17.016Z,50.908119
2023-04-05T07:45:17.015Z,50.908112
2023-04-05T07:46:17.015Z,50.908100
2023-04-05T07:47:16.988Z,50.908062
2023-04-05T07:48:17.006Z,50.908070
2023-04-05T07:49:16.975Z,50.908100
2023-04-05T07:50:16.970Z,50.908073
2023-04-05T07:51:16.961Z,50.908031
2023-04-05T07:52:16.956Z,50.908043
2023-04-05T07:53:16.999Z,50.908043
2023-04-05T07:54:16.964Z,50.908047
2023-04-05T07:55:16.940Z,50.908096
2023-04-05T07:56:16.954Z,50.908062
2023-04-05T07:57:16.938Z,50.908073
2023-04-05T07:58:16.938Z,50.908062
2023-04-05T07:59:16.938Z,50.908096
2023-04-05T08:00:16.898Z,50.908131
2023-04-05T08:01:16.894Z,50.908127
2023-04-05T08:02:16.889Z,50.908138
2023-04-05T08:03:16.955Z,50.908119
2023-04-05T08:04:16.879Z,50.908112
2023-04-05T08:05:16.892Z,50.908142
2023-04-05T08:06:16.853Z,50.908131
2023-04-05T08:07:16.853Z,50.908131
2023-04-05T08:08:16.871Z,50.908165
2023-04-05T08:09:16.843Z,50.908134
2023-04-05T08:10:16.817Z,50.908138
2023-04-05T08:11:16.819Z,50.908150
2023-04-05T08:12:16.809Z,50.908150
2023-04-05T08:13:16.832Z,50.908138
2023-04-05T08:14:16.794Z,50.908150
2023-04-05T08:15:16.783Z,50.908112
2023-04-05T08:16:16.828Z,50.908115
2023-04-05T08:17:16.836Z,50.908115
2023-04-05T08:18:16.798Z,50.908123
2023-04-05T08:19:16.763Z,50.908134
2023-04-05T08:20:16.750Z,50.908150
2023-04-05T08:21:16.744Z,50.908150
2023-04-05T08:22:16.738Z,50.908127
2023-04-05T08:23:16.759Z,50.908134
2023-04-05T08:24:16.732Z,50.908123
2023-04-05T08:25:16.715Z,50.908138
2023-04-05T08:26:16.706Z,50.908131
2023-04-05T08:27:16.735Z,50.908115
2023-04-05T08:28:16.722Z,50.908115
2023-04-05T08:29:16.692Z,50.908070
2023-04-05T08:30:16.677Z,50.908092
2023-04-05T08:31:16.686Z,50.908150
2023-04-05T08:32:16.701Z,50.908131
2023-04-05T08:33:16.772Z,50.908108
2023-04-05T08:34:16.653Z,50.908165
2023-04-05T08:35:16.644Z,50.908146
2023-04-05T08:36:16.638Z,50.908119
2023-04-05T08:37:16.638Z,50.908146
2023-04-05T08:38:16.656Z,50.908142
2023-04-05T08:39:16.624Z,50.908108
2023-04-05T08:40:16.617Z,50.908142
2023-04-05T08:41:16.612Z,50.908104
2023-04-05T08:42:16.602Z,50.908154
2023-04-05T08:43:18.478Z,50.908169
2023-04-05T08:44:16.595Z,50.908146
2023-04-05T08:45:16.601Z,50.908112
2023-04-05T08:46:16.661Z,50.908169
2023-04-05T08:47:16.564Z,50.908150
2023-04-05T08:48:16.556Z,50.908161
2023-04-05T08:49:16.575Z,50.908154
2023-04-05T08:50:16.546Z,50.908154
2023-04-05T08:51:16.532Z,50.908142
2023-04-05T08:52:17.528Z,50.908131
2023-04-05T08:53:16.525Z,50.908123
2023-04-05T08:54:16.558Z,50.908165
2023-04-05T08:55:16.507Z,50.908134
2023-04-05T08:56:16.506Z,50.908161
2023-04-05T08:57:16.497Z,50.908154
2023-04-05T08:58:16.485Z,50.908157
2023-04-05T08:59:16.529Z,50.908142
2023-04-05T09:00:16.470Z,50.908108
2023-04-05T09:01:16.523Z,50.908142
2023-04-05T09:02:16.564Z,50.908157
2023-04-05T09:03:16.535Z,50.908180
2023-04-05T09:04:16.474Z,50.908131
2023-04-05T09:05:16.441Z,50.908123
2023-04-05T09:06:16.424Z,50.908127
2023-04-05T09:07:16.436Z,50.908104
2023-04-05T09:08:16.413Z,50.908108
2023-04-05T09:09:17.107Z,50.908119
2023-04-05T09:10:16.400Z,50.908127
2023-04-05T09:11:16.399Z,50.908100
2023-04-05T09:12:16.382Z,50.908108
2023-04-05T09:13:16.382Z,50.908096
2023-04-05T09:14:16.390Z,50.908062
2023-04-05T09:15:16.404Z,50.908070
2023-04-05T09:16:16.402Z,50.908127
2023-04-05T09:17:16.395Z,50.908089
2023-04-05T09:18:26.127Z,50.908165
2023-04-05T09:19:18.358Z,50.908142
2023-04-05T09:20:16.334Z,50.908131
2023-04-05T09:21:16.315Z,50.908112
2023-04-05T09:22:16.308Z,50.908131
2023-04-05T09:23:16.296Z,50.908123
2023-04-05T09:24:16.326Z,50.908131
2023-04-05T09:25:16.281Z,50.908134
2023-04-05T09:26:16.275Z,50.908123
2023-04-05T09:27:16.285Z,50.908115
2023-04-05T09:28:16.262Z,50.908081
2023-04-05T09:29:16.278Z,50.908131
2023-04-05T09:30:16.251Z,50.908127
2023-04-05T09:31:16.241Z,50.908134
2023-04-05T09:32:16.250Z,50.908138
2023-04-05T09:33:16.224Z,50.908169
2023-04-05T09:34:16.241Z,50.908150
2023-04-05T09:35:16.213Z,50.908131
2023-04-05T09:36:16.199Z,50.908146
2023-04-05T09:37:16.211Z,50.908096
2023-04-05T09:38:16.199Z,50.908119
2023-04-05T09:39:16.219Z,50.908138
2023-04-05T09:40:16.177Z,50.908123
2023-04-05T09:41:16.165Z,50.908100
2023-04-05T09:42:16.155Z,50.908142
2023-04-05T09:43:16.156Z,50.908123
2023-04-05T09:44:16.170Z,50.908134
2023-04-05T09:45:16.139Z,50.908131
2023-04-05T09:46:16.152Z,50.908115
2023-04-05T09:47:16.149Z,50.908157
2023-04-05T09:48:16.132Z,50.908142
2023-04-05T09:49:16.128Z,50.908150
2023-04-05T09:50:16.137Z,50.908165
2023-04-05T09:51:16.101Z,50.908146
2023-04-05T09:52:16.079Z,50.908169
2023-04-05T09:53:16.386Z,50.908115
2023-04-05T09:54:16.083Z,50.908119
2023-04-05T09:55:16.055Z,50.908112
2023-04-05T09:56:16.048Z,50.908123
2023-04-05T09:57:16.036Z,50.908161
2023-04-05T09:58:16.030Z,50.908161
2023-04-05T09:59:16.095Z,50.908150
2023-04-05T10:00:17.014Z,50.908146
2023-04-05T10:01:17.411Z,50.908157
2023-04-05T10:02:17.069Z,50.908161
2023-04-05T10:03:16.044Z,50.908215
2023-04-05T10:04:16.144Z,50.908161
2023-04-05T10:05:15.998Z,50.908146
2023-04-05T10:06:15.965Z,50.908146
2023-04-05T10:07:15.968Z,50.908115
2023-04-05T10:08:15.953Z,50.908188
2023-04-05T10:09:15.965Z,50.908142
2023-04-05T10:10:15.940Z,50.908134
2023-04-05T10:11:15.921Z,50.908127
2023-04-05T10:12:16.914Z,50.908192
2023-04-05T10:13:15.922Z,50.908157
2023-04-05T10:14:15.940Z,50.908134
2023-04-05T10:15:15.888Z,50.908169
2023-04-05T10:16:16.016Z,50.908199
2023-04-05T10:17:15.874Z,50.908161
2023-04-05T10:18:15.911Z,50.908131
2023-04-05T10:19:15.889Z,50.908138
2023-04-05T10:20:15.846Z,50.908092
2023-04-05T10:21:15.840Z,50.908138
2023-04-05T10:22:15.833Z,50.908119
2023-04-05T10:23:15.860Z,50.908119
2023-04-05T10:24:15.820Z,50.908161
2023-04-05T10:25:15.855Z,50.908169
2023-04-05T10:26:15.804Z,50.908199
2023-04-05T10:27:15.806Z,50.908142
2023-04-05T10:28:15.791Z,50.908127
2023-04-05T10:29:15.784Z,50.908142
2023-04-05T10:30:15.888Z,50.908157
2023-04-05T10:31:27.021Z,50.908134
2023-04-05T10:32:17.816Z,50.908142
2023-04-05T10:33:15.762Z,50.908157
2023-04-05T10:34:15.747Z,50.908077
2023-04-05T10:35:15.765Z,50.908134
2023-04-05T10:36:15.760Z,50.908119
2023-04-05T10:37:15.756Z,50.908115
2023-04-05T10:38:15.755Z,50.908077
2023-04-05T10:39:15.709Z,50.908077
2023-04-05T10:40:15.730Z,50.908066
2023-04-05T10:41:15.676Z,50.908077
2023-04-05T10:42:15.680Z,50.908100
2023-04-05T10:43:15.672Z,50.908092
2023-04-05T10:44:25.720Z,50.908119
2023-04-05T10:45:17.743Z,50.908127
2023-04-05T10:46:15.726Z,50.908051
2023-04-05T10:47:15.764Z,50.908115
2023-04-05T10:48:15.673Z,50.908146
2023-04-05T10:49:15.640Z,50.908134
2023-04-05T10:50:15.635Z,50.908081
2023-04-05T10:51:15.640Z,50.908112
2023-04-05T10:52:15.622Z,50.908100
2023-04-05T10:53:15.658Z,50.908051
2023-04-05T10:54:15.585Z,50.908066
2023-04-05T10:55:15.668Z,50.908112
2023-04-05T10:56:15.606Z,50.908092
2023-04-05T10:57:15.566Z,50.908115
2023-04-05T10:58:15.586Z,50.908112
2023-04-05T10:59:15.634Z,50.908077
2023-04-05T11:00:15.623Z,50.908024
2023-04-05T11:01:15.574Z,50.908081
2023-04-05T11:02:15.532Z,50.908085
2023-04-05T11:03:15.546Z,50.908096
2023-04-05T11:04:15.546Z,50.908104
2023-04-05T11:05:15.531Z,50.908108
2023-04-05T11:06:15.498Z,50.908108
2023-04-05T11:07:15.482Z,50.908096
2023-04-05T11:08:15.471Z,50.908112
2023-04-05T11:09:15.459Z,50.908089
2023-04-05T11:10:15.485Z,50.908119
2023-04-05T11:11:15.458Z,50.908115
2023-04-05T11:12:15.450Z,50.908108
2023-04-05T11:13:15.432Z,50.908115
2023-04-05T11:14:15.433Z,50.908108
2023-04-05T11:15:15.461Z,50.908112
2023-04-05T11:16:15.447Z,50.908131
2023-04-05T11:17:15.422Z,50.908131
2023-04-05T11:18:15.400Z,50.908180
2023-04-05T11:19:15.384Z,50.908138
2023-04-05T11:20:15.413Z,50.908119
2023-04-05T11:21:15.367Z,50.908108
2023-04-05T11:22:15.371Z,50.908131
2023-04-05T11:23:15.367Z,50.908127
2023-04-05T11:24:15.352Z,50.908108